Leader Sw — 3EEY7 — position and weather

sailwx.info

Track history (hours):
 
Tides and Currents Weather Stations Pressure Air Temp Water Temp Dewpoint Dewpoint Depression Visibility Wind Speed Wind Dir Waves Ship Positions

Leader Sw

Last reported at 2018-May-04 01:12 UTC. Time now 2018-May-22 17:22 UTC.
Position N 33°14' E 132°02'.
Warning: this ship's position is 18 days out of date.

Length 117 m; draft 6.9 m.

Type: Cargo ship. MMSI: 371968000.

Date/timePositionNaut miles runAvg speedWind from/ knotsBaromVisibWave heightAir tempDewpointWater temp
2018-May-04 01:12N 33°14' E 132°02'211.8
2018-May-04 01:00N 33°16' E 132°01'610.9
2018-May-04 00:29N 33°21' E 131°58'5 8.7
2018-May-03 23:57N 33°26' E 132°00'2211.3
2018-May-03 21:59N 33°41' E 132°20'611.4
2018-May-03 21:28N 33°45' E 132°25'511.8
2018-May-03 21:00N 33°48' E 132°30'612.4
2018-May-03 20:30N 33°53' E 132°35'712.6
2018-May-03 19:59N 33°57' E 132°42'8110.1
2018-May-03 12:00N 34°24' E 134°13'710.8
2018-May-03 11:23N 34°25' E 134°21'410.7
2018-May-03 10:59N 34°26' E 134°26'511.1
2018-May-03 10:30N 34°28' E 134°32'511.0
2018-May-03 10:00N 34°30' E 134°38'611.2
2018-May-03 09:30N 34°32' E 134°44'510.7
2018-May-03 09:00N 34°34' E 134°50'5 9.9
2018-May-03 08:30N 34°36' E 134°56'4 8.7
2018-May-03 08:00N 34°37' E 135°01'3 6.8
2018-May-03 07:30N 34°36' E 135°05'5 9.0
2018-May-03 07:00N 34°36' E 135°10'510.1
2018-May-03 06:30N 34°38' E 135°16'4 8.0
2018-May-03 06:00N 34°41' E 135°15'1 1.1
2018-May-03 05:29N 34°42' E 135°15'0 0.0
2018-May-03 04:59N 34°42' E 135°15'0 0.0
2018-May-03 04:28N 34°42' E 135°15'0 0.0
2018-May-03 03:58N 34°42' E 135°15'0 0.0
2018-May-03 03:28N 34°42' E 135°15'0 0.0
2018-May-03 02:58N 34°42' E 135°15'0 0.0
2018-May-03 02:28N 34°42' E 135°15'0 0.0
2018-May-03 01:58N 34°42' E 135°15'0 0.0
2018-May-03 01:28N 34°42' E 135°15'0 0.0
2018-May-03 00:58N 34°42' E 135°15'0 0.0
2018-May-03 00:25N 34°42' E 135°15'0 0.0
2018-May-02 23:58N 34°42' E 135°15'0 0.0
2018-May-02 23:28N 34°42' E 135°15'0 0.0
2018-May-02 22:58N 34°42' E 135°15'0 0.0
2018-May-02 22:28N 34°42' E 135°15'0 0.0
2018-May-02 21:58N 34°42' E 135°15'0 0.0
2018-May-02 21:28N 34°42' E 135°15'0 0.0
2018-May-02 20:58N 34°42' E 135°15'0 0.0
2018-May-02 20:28N 34°42' E 135°15'0 0.0
2018-May-02 19:58N 34°42' E 135°15'0 0.0
2018-May-02 19:28N 34°42' E 135°15'0 0.0
2018-May-02 18:58N 34°42' E 135°15'0 0.0
2018-May-02 18:28N 34°42' E 135°15'0 0.0
2018-May-02 17:58N 34°42' E 135°15'0 0.0
2018-May-02 17:28N 34°42' E 135°15'0 0.0
2018-May-02 16:58N 34°42' E 135°15'0 0.0
2018-May-02 16:28N 34°42' E 135°15'0 0.0
2018-May-02 15:58N 34°42' E 135°15'0 0.0
2018-May-02 15:28N 34°42' E 135°15'0 0.0
2018-May-02 14:58N 34°42' E 135°15'0 0.0
2018-May-02 14:28N 34°42' E 135°15'0 0.0
2018-May-02 13:58N 34°42' E 135°15'0 0.0
2018-May-02 13:28N 34°42' E 135°15'0 0.0
2018-May-02 12:58N 34°42' E 135°15'0 0.0
2018-May-02 12:28N 34°42' E 135°15'0 0.0
2018-May-02 11:58N 34°42' E 135°15'0 0.0
2018-May-02 11:28N 34°42' E 135°15'0 0.0
2018-May-02 10:58N 34°42' E 135°15'0 0.0
2018-May-02 10:28N 34°42' E 135°15'0 0.0
2018-May-02 09:58N 34°42' E 135°15'0 0.0
2018-May-02 09:28N 34°42' E 135°15'0 0.0
2018-May-02 08:58N 34°42' E 135°15'0 0.0
2018-May-02 08:28N 34°42' E 135°15'0 0.0
2018-May-02 07:58N 34°42' E 135°15'0 0.0
2018-May-02 07:28N 34°42' E 135°15'0 0.0
2018-May-02 06:58N 34°42' E 135°15'0 0.0
2018-May-02 06:28N 34°42' E 135°15'0 0.0
2018-May-02 05:58N 34°42' E 135°15'0 0.0
2018-May-02 05:28N 34°42' E 135°15'0 0.0
2018-May-02 04:58N 34°42' E 135°15'0 0.0
2018-May-02 04:28N 34°42' E 135°15'0 0.0
2018-May-02 03:58N 34°42' E 135°15'0 0.0
2018-May-02 03:28N 34°42' E 135°15'0 0.0
2018-May-02 02:58N 34°42' E 135°15'0 0.0
2018-May-02 02:28N 34°42' E 135°15'0 0.0
2018-May-02 01:58N 34°42' E 135°15'0 0.0
2018-May-02 01:28N 34°42' E 135°15'0 0.0
2018-May-02 00:58N 34°42' E 135°15'0 0.0
2018-May-02 00:28N 34°42' E 135°15'0 0.0
2018-May-01 23:58N 34°42' E 135°15'0 0.0
2018-May-01 23:28N 34°42' E 135°15'0 0.0
2018-May-01 22:58N 34°42' E 135°15'0 0.0
2018-May-01 22:28N 34°42' E 135°15'0 0.0
2018-May-01 21:58N 34°42' E 135°15'0 0.0
2018-May-01 21:28N 34°42' E 135°15'0 0.0
2018-May-01 20:58N 34°42' E 135°15'0 0.0
2018-May-01 20:28N 34°42' E 135°15'0 0.0
2018-May-01 20:01N 34°42' E 135°15'0 0.0
2018-May-01 19:31N 34°42' E 135°15'0 0.0
2018-May-01 19:00N 34°42' E 135°15'0 0.0
2018-May-01 18:30N 34°42' E 135°15'0 0.0
2018-May-01 18:00N 34°42' E 135°15'0 0.0
2018-May-01 17:30N 34°42' E 135°15'0 0.0
2018-May-01 17:00N 34°42' E 135°15'0 0.0
2018-May-01 16:30N 34°42' E 135°15'0 0.0
2018-May-01 16:00N 34°42' E 135°15'0 0.0
2018-May-01 15:30N 34°42' E 135°15'0 0.0
2018-May-01 15:00N 34°42' E 135°15'0 0.0
2018-May-01 14:30N 34°42' E 135°15'0 0.0
2018-May-01 14:00N 34°42' E 135°15'0 0.0
2018-May-01 13:30N 34°42' E 135°15'0 0.0
2018-May-01 13:00N 34°42' E 135°15'0 0.0
2018-May-01 12:30N 34°42' E 135°15'0 0.0
2018-May-01 12:00N 34°42' E 135°15'0 0.0
2018-May-01 11:30N 34°42' E 135°15'0 0.0
2018-May-01 11:00N 34°42' E 135°15'0 0.0
2018-May-01 10:30N 34°42' E 135°15'0 0.0
2018-May-01 10:00N 34°42' E 135°15'0 0.0
2018-May-01 09:30N 34°42' E 135°15'0 0.0
2018-May-01 09:00N 34°42' E 135°15'0 0.0
2018-May-01 08:30N 34°42' E 135°15'0 0.0
2018-May-01 08:00N 34°42' E 135°15'0 0.0
2018-May-01 07:30N 34°42' E 135°15'0 0.0
2018-May-01 07:00N 34°42' E 135°15'0 0.0
2018-May-01 06:30N 34°42' E 135°15'0 0.0
2018-May-01 06:00N 34°42' E 135°15'0 0.0
2018-May-01 05:30N 34°42' E 135°15'0 0.0
2018-May-01 05:00N 34°42' E 135°15'0 0.0
2018-May-01 04:30N 34°42' E 135°15'0 0.0
2018-May-01 04:00N 34°42' E 135°15'0 0.0
2018-May-01 03:30N 34°42' E 135°15'0 0.0
2018-May-01 03:00N 34°42' E 135°15'0 0.0
2018-May-01 02:30N 34°42' E 135°15'0 0.0
2018-May-01 01:57N 34°42' E 135°15'0 0.0
2018-May-01 01:30N 34°42' E 135°15'2 3.9
2018-May-01 01:00N 34°40' E 135°15'3 5.5
2018-May-01 00:30N 34°37' E 135°14'2 3.0
2018-May-01 00:00N 34°37' E 135°12'0 0.0
2018-Apr-30 23:24N 34°37' E 135°12'0 0.0
2018-Apr-30 23:00N 34°37' E 135°12'0 0.0
2018-Apr-30 22:30N 34°37' E 135°12'0 0.0
2018-Apr-30 22:00N 34°37' E 135°12'0 0.0
2018-Apr-30 21:30N 34°37' E 135°12'0 0.1
2018-Apr-30 21:00N 34°37' E 135°12'0 0.1
2018-Apr-30 20:30N 34°37' E 135°12'0 0.0
2018-Apr-30 20:00N 34°37' E 135°12'0 0.0
2018-Apr-30 19:30N 34°37' E 135°12'0 0.0
2018-Apr-30 19:00N 34°37' E 135°12'0 0.0
2018-Apr-30 18:30N 34°37' E 135°12'0 0.0
2018-Apr-30 18:00N 34°37' E 135°12'0 0.0
2018-Apr-30 17:30N 34°37' E 135°12'0 0.0
2018-Apr-30 17:00N 34°37' E 135°12'0 0.0
2018-Apr-30 16:30N 34°37' E 135°12'0 0.1
2018-Apr-30 16:00N 34°37' E 135°12'0 0.1
2018-Apr-30 15:30N 34°37' E 135°12'0 0.0
2018-Apr-30 15:00N 34°37' E 135°12'0 0.0
2018-Apr-30 14:30N 34°37' E 135°12'0 0.0
2018-Apr-30 14:00N 34°37' E 135°12'0 0.0
2018-Apr-30 13:30N 34°37' E 135°12'0 0.0
2018-Apr-30 13:00N 34°37' E 135°12'0 0.0
2018-Apr-30 12:30N 34°37' E 135°12'0 0.0
2018-Apr-30 12:00N 34°37' E 135°12'0 0.1
2018-Apr-30 11:30N 34°37' E 135°12'0 0.1
2018-Apr-30 11:00N 34°37' E 135°12'0 0.0
2018-Apr-30 10:30N 34°37' E 135°12'0 0.1
2018-Apr-30 10:00N 34°37' E 135°12'0 0.0
2018-Apr-30 09:30N 34°37' E 135°12'0 0.0
2018-Apr-30 09:00N 34°37' E 135°12'0 0.0
2018-Apr-30 08:30N 34°37' E 135°12'0 0.0
2018-Apr-30 08:00N 34°37' E 135°12'0 0.0
2018-Apr-30 07:30N 34°37' E 135°12'0 0.1
2018-Apr-30 07:00N 34°37' E 135°13'0 0.1
2018-Apr-30 06:30N 34°37' E 135°12'0 0.0
2018-Apr-30 06:00N 34°37' E 135°12'0 0.0
2018-Apr-30 05:30N 34°37' E 135°12'0 0.0
2018-Apr-30 05:00N 34°37' E 135°12'0 0.0
2018-Apr-30 04:30N 34°37' E 135°12'0 0.0
2018-Apr-30 04:00N 34°37' E 135°12'0 0.1
2018-Apr-30 03:30N 34°37' E 135°12'0 0.1
2018-Apr-30 03:00N 34°37' E 135°12'0 0.0
2018-Apr-30 02:30N 34°37' E 135°12'0 0.0
2018-Apr-30 02:00N 34°37' E 135°12'0 0.0
2018-Apr-30 01:30N 34°37' E 135°12'0 0.0
2018-Apr-30 01:00N 34°37' E 135°12'0 0.0
2018-Apr-30 00:30N 34°37' E 135°12'0 0.0
2018-Apr-30 00:00N 34°37' E 135°12'0 0.0
2018-Apr-29 23:30N 34°37' E 135°12'0 0.0
2018-Apr-29 23:00N 34°37' E 135°12'0 0.0
2018-Apr-29 22:30N 34°37' E 135°12'0 0.0
2018-Apr-29 22:00N 34°37' E 135°12'0 0.0
2018-Apr-29 21:29N 34°37' E 135°12'0 0.1
2018-Apr-29 20:59N 34°37' E 135°12'0 0.1
2018-Apr-29 20:29N 34°37' E 135°12'0 0.0
2018-Apr-29 19:59N 34°37' E 135°12'0 0.0
2018-Apr-29 19:29N 34°37' E 135°12'0 0.0
2018-Apr-29 18:59N 34°37' E 135°12'0 0.1
2018-Apr-29 18:29N 34°37' E 135°12'0 0.0
2018-Apr-29 17:59N 34°37' E 135°12'0 0.0
2018-Apr-29 17:29N 34°37' E 135°12'0 0.0
2018-Apr-29 16:59N 34°37' E 135°12'0 0.0
2018-Apr-29 16:29N 34°37' E 135°12'0 0.1
2018-Apr-29 15:59N 34°37' E 135°12'0 0.1
2018-Apr-29 15:29N 34°37' E 135°12'0 0.0
2018-Apr-29 14:59N 34°37' E 135°12'0 0.0
2018-Apr-29 14:29N 34°37' E 135°12'0 0.0
2018-Apr-29 13:59N 34°37' E 135°12'0 0.0
2018-Apr-29 13:29N 34°37' E 135°12'0 0.0
2018-Apr-29 12:59N 34°37' E 135°12'0 0.1
2018-Apr-29 12:29N 34°37' E 135°12'0 0.0
2018-Apr-29 11:59N 34°37' E 135°12'0 0.0
2018-Apr-29 11:29N 34°37' E 135°12'0 0.0
2018-Apr-29 10:59N 34°37' E 135°12'0 0.1
2018-Apr-29 10:29N 34°37' E 135°12'0 0.0
2018-Apr-29 09:59N 34°37' E 135°12'0 0.1
2018-Apr-29 09:29N 34°37' E 135°12'0 0.0
2018-Apr-29 08:59N 34°37' E 135°12'0 0.0
2018-Apr-29 08:29N 34°37' E 135°12'0 0.0
2018-Apr-29 07:59N 34°37' E 135°12'0 0.1
2018-Apr-29 07:29N 34°37' E 135°12'0 0.0
2018-Apr-29 06:59N 34°37' E 135°12'0 0.0
2018-Apr-29 06:29N 34°37' E 135°12'0 0.0
2018-Apr-29 05:59N 34°37' E 135°12'0 0.0
2018-Apr-29 05:29N 34°37' E 135°12'0 0.0
2018-Apr-29 04:59N 34°37' E 135°12'0 0.0
2018-Apr-29 04:29N 34°37' E 135°12'0 0.0
2018-Apr-29 03:59N 34°37' E 135°12'0 0.1
2018-Apr-29 03:29N 34°37' E 135°12'0 0.1
2018-Apr-29 02:59N 34°37' E 135°12'0 0.1
2018-Apr-29 02:29N 34°37' E 135°12'0 0.0
2018-Apr-29 01:59N 34°37' E 135°12'0 0.0
2018-Apr-29 01:29N 34°37' E 135°12'0 0.0
2018-Apr-29 00:59N 34°37' E 135°12'0 0.0
2018-Apr-29 00:29N 34°37' E 135°12'0 0.0
2018-Apr-28 23:59N 34°37' E 135°12'0 0.0
2018-Apr-28 23:29N 34°37' E 135°12'0 0.0
2018-Apr-28 22:59N 34°37' E 135°12'0 0.0
2018-Apr-28 22:29N 34°37' E 135°12'0 0.0
2018-Apr-28 21:59N 34°37' E 135°12'0 0.0
2018-Apr-28 21:29N 34°37' E 135°12'0 0.0
2018-Apr-28 20:59N 34°37' E 135°12'0 0.1
2018-Apr-28 20:29N 34°37' E 135°12'0 0.2
2018-Apr-28 19:59N 34°37' E 135°12'0 0.0
2018-Apr-28 19:29N 34°37' E 135°12'0 0.0
2018-Apr-28 18:59N 34°37' E 135°12'0 0.0
2018-Apr-28 18:29N 34°37' E 135°12'0 0.0
2018-Apr-28 17:59N 34°37' E 135°12'0 0.0
2018-Apr-28 17:29N 34°37' E 135°12'0 0.0
2018-Apr-28 16:59N 34°37' E 135°12'0 0.0
2018-Apr-28 16:29N 34°37' E 135°12'0 0.0
2018-Apr-28 15:59N 34°37' E 135°12'0 0.0
2018-Apr-28 15:29N 34°37' E 135°12'0 0.0
2018-Apr-28 14:59N 34°37' E 135°12'0 0.2
2018-Apr-28 14:29N 34°37' E 135°12'0 0.0
2018-Apr-28 13:59N 34°37' E 135°12'0 0.0
2018-Apr-28 13:29N 34°37' E 135°12'0 0.0
2018-Apr-28 12:59N 34°37' E 135°12'0 0.0
2018-Apr-28 12:28N 34°37' E 135°12'0 0.0
2018-Apr-28 11:59N 34°37' E 135°12'2 3.5
2018-Apr-28 11:30N 34°36' E 135°11'5 9.2
2018-Apr-28 11:00N 34°35' E 135°06'4 8.3
2018-Apr-28 10:30N 34°37' E 135°01'4 8.4
2018-Apr-28 10:00N 34°36' E 134°56'4 8.9
2018-Apr-28 09:30N 34°34' E 134°51'510.2
2018-Apr-28 09:00N 34°32' E 134°46'4 8.3
2018-Apr-28 08:30N 34°36' E 134°43'611.2
2018-Apr-28 08:00N 34°41' E 134°47'3 5.4
2018-Apr-28 07:29N 34°43' E 134°48'0 0.2
2018-Apr-28 06:57N 34°43' E 134°49'0 0.0
2018-Apr-28 06:27N 34°43' E 134°49'0 0.0
2018-Apr-28 05:57N 34°43' E 134°49'0 0.0
2018-Apr-28 05:27N 34°43' E 134°49'0 0.0
2018-Apr-28 04:51N 34°43' E 134°49'0 0.0
2018-Apr-28 04:27N 34°43' E 134°49'0 0.0
2018-Apr-28 03:45N 34°43' E 134°49'0 0.0
2018-Apr-28 03:15N 34°43' E 134°49'0 0.0
2018-Apr-28 02:45N 34°43' E 134°49'0 0.0
2018-Apr-28 02:27N 34°43' E 134°49'0 0.0
2018-Apr-28 01:57N 34°43' E 134°49'0 0.0
2018-Apr-28 01:27N 34°43' E 134°49'0 0.0
2018-Apr-28 00:51N 34°43' E 134°49'0 0.0
2018-Apr-28 00:27N 34°43' E 134°49'0 0.0
2018-Apr-27 23:57N 34°43' E 134°49'0 0.0
2018-Apr-27 23:27N 34°43' E 134°49'0 0.0
2018-Apr-27 22:57N 34°43' E 134°49'0 0.0
2018-Apr-27 22:30N 34°43' E 134°49'0 0.0
2018-Apr-27 22:00N 34°43' E 134°49'0 0.0
2018-Apr-27 21:27N 34°43' E 134°49'0 0.0
2018-Apr-27 20:57N 34°43' E 134°49'0 0.0
2018-Apr-27 20:29N 34°43' E 134°49'0 0.0
2018-Apr-27 19:51N 34°43' E 134°49'0 0.0
2018-Apr-27 19:26N 34°43' E 134°49'0 0.0
2018-Apr-27 18:50N 34°43' E 134°49'0 0.0
2018-Apr-27 18:29N 34°43' E 134°49'0 0.0
2018-Apr-27 17:59N 34°43' E 134°49'0 0.0
2018-Apr-27 17:26N 34°43' E 134°49'0 0.0
2018-Apr-27 16:56N 34°43' E 134°49'0 0.0
2018-Apr-27 16:29N 34°43' E 134°49'0 0.0
2018-Apr-27 15:59N 34°43' E 134°49'0 0.0
2018-Apr-27 15:29N 34°43' E 134°49'0 0.0
2018-Apr-27 14:59N 34°43' E 134°49'0 0.0
2018-Apr-27 14:14N 34°43' E 134°49'0 0.0
2018-Apr-27 13:59N 34°43' E 134°49'0 0.0
2018-Apr-27 13:29N 34°43' E 134°49'0 0.0
2018-Apr-27 12:56N 34°43' E 134°49'0 0.0
2018-Apr-27 12:26N 34°43' E 134°49'0 0.0
2018-Apr-27 11:56N 34°43' E 134°49'0 0.0
2018-Apr-27 11:26N 34°43' E 134°49'0 0.0
2018-Apr-27 10:59N 34°43' E 134°49'0 0.0
2018-Apr-27 10:26N 34°43' E 134°49'0 0.0
2018-Apr-27 09:59N 34°43' E 134°49'0 0.0
2018-Apr-27 09:20N 34°43' E 134°49'0 0.0
2018-Apr-27 08:56N 34°43' E 134°49'0 0.0
2018-Apr-27 08:14N 34°43' E 134°49'0 0.0
2018-Apr-27 07:59N 34°43' E 134°49'0 0.0
2018-Apr-27 07:20N 34°43' E 134°49'0 0.0
2018-Apr-27 06:56N 34°43' E 134°49'0 0.0
2018-Apr-27 06:20N 34°43' E 134°49'0 0.0
2018-Apr-27 05:56N 34°43' E 134°49'0 0.0
2018-Apr-27 05:29N 34°43' E 134°49'0 0.0
2018-Apr-27 04:56N 34°43' E 134°49'0 0.0
2018-Apr-27 04:26N 34°43' E 134°49'0 0.0
2018-Apr-27 03:59N 34°43' E 134°49'0 0.0
2018-Apr-27 03:26N 34°43' E 134°49'0 0.0
2018-Apr-27 02:59N 34°43' E 134°49'0 0.0
2018-Apr-27 02:29N 34°43' E 134°49'0 0.0
2018-Apr-27 01:56N 34°43' E 134°49'0 0.0
2018-Apr-27 01:23N 34°43' E 134°49'0 0.0
2018-Apr-27 00:56N 34°43' E 134°49'0 0.0
2018-Apr-27 00:20N 34°43' E 134°49'0 0.0
2018-Apr-26 23:59N 34°43' E 134°49'0 0.0
2018-Apr-26 23:26N 34°43' E 134°49'0 0.0
2018-Apr-26 22:59N 34°43' E 134°49'0 0.0
2018-Apr-26 22:23N 34°43' E 134°49'0 0.0
2018-Apr-26 21:17N 34°43' E 134°49'0 0.0
2018-Apr-26 20:02N 34°43' E 134°49'0 0.0
2018-Apr-26 19:56N 34°43' E 134°49'0 0.0
2018-Apr-26 19:20N 34°43' E 134°49'0 0.0
2018-Apr-26 18:59N 34°43' E 134°49'0 0.0
2018-Apr-26 18:11N 34°43' E 134°49'0 0.0
2018-Apr-26 17:56N 34°43' E 134°49'0 0.0
2018-Apr-26 17:08N 34°43' E 134°49'0 0.0
2018-Apr-26 16:50N 34°43' E 134°49'0 0.0
2018-Apr-26 16:26N 34°43' E 134°49'0 0.0
2018-Apr-26 15:59N 34°43' E 134°49'0 0.0
2018-Apr-26 15:20N 34°43' E 134°49'0 0.0
2018-Apr-26 14:50N 34°43' E 134°49'0 0.0
2018-Apr-26 14:26N 34°43' E 134°49'0 0.0
2018-Apr-26 13:56N 34°43' E 134°49'0 0.0
2018-Apr-26 13:29N 34°43' E 134°49'0 0.0
2018-Apr-26 12:56N 34°43' E 134°49'0 0.0
2018-Apr-26 12:26N 34°43' E 134°49'0 0.0
2018-Apr-26 11:56N 34°43' E 134°49'0 0.0
2018-Apr-26 11:08N 34°43' E 134°49'0 0.0
2018-Apr-26 10:44N 34°43' E 134°49'0 0.0
2018-Apr-26 10:26N 34°43' E 134°49'0 0.0
2018-Apr-26 09:56N 34°43' E 134°49'0 0.0
2018-Apr-26 09:29N 34°43' E 134°49'0 0.0
2018-Apr-26 08:47N 34°43' E 134°49'0 0.0
2018-Apr-26 08:29N 34°43' E 134°49'0 0.0
2018-Apr-26 07:56N 34°43' E 134°49'0 0.0
2018-Apr-26 07:25N 34°43' E 134°49'0 0.0
2018-Apr-26 06:58N 34°43' E 134°49'0 0.0
2018-Apr-26 06:25N 34°43' E 134°49'0 0.0
2018-Apr-26 05:55N 34°43' E 134°49'0 0.0
2018-Apr-26 05:19N 34°43' E 134°49'0 0.0
2018-Apr-26 04:55N 34°43' E 134°49'0 0.0
2018-Apr-26 04:25N 34°43' E 134°49'0 0.0
2018-Apr-26 03:49N 34°43' E 134°49'0 0.0
2018-Apr-26 03:25N 34°43' E 134°49'0 0.0
2018-Apr-26 02:55N 34°43' E 134°49'0 0.0
2018-Apr-26 02:28N 34°43' E 134°49'0 0.0
2018-Apr-26 01:55N 34°43' E 134°49'0 0.0
2018-Apr-26 01:28N 34°43' E 134°49'0 0.0
2018-Apr-26 00:55N 34°43' E 134°49'0 0.0
2018-Apr-26 00:19N 34°43' E 134°49'0 0.0
2018-Apr-25 23:58N 34°43' E 134°49'0 0.0
2018-Apr-25 23:25N 34°43' E 134°49'0 0.0
2018-Apr-25 22:58N 34°43' E 134°49'1 2.7
2018-Apr-25 22:30N 34°42' E 134°48'2 4.3
2018-Apr-25 21:59N 34°40' E 134°46'0 0.1
2018-Apr-25 21:20N 34°40' E 134°46'0 0.1
2018-Apr-25 20:59N 34°40' E 134°46'0 0.0
2018-Apr-25 20:29N 34°40' E 134°46'0 0.0
2018-Apr-25 19:59N 34°40' E 134°46'0 0.0
2018-Apr-25 19:26N 34°40' E 134°46'0 0.0
2018-Apr-25 18:59N 34°40' E 134°46'0 0.0
2018-Apr-25 18:26N 34°40' E 134°46'0 0.1
2018-Apr-25 17:59N 34°40' E 134°46'0 0.1
2018-Apr-25 17:29N 34°40' E 134°46'1 2.6
2018-Apr-25 17:00N 34°39' E 134°45'5 9.4
2018-Apr-25 16:31N 34°37' E 134°41'611.5
2018-Apr-25 16:00N 34°33' E 134°35'611.9
2018-Apr-25 15:31N 34°30' E 134°29'611.5
2018-Apr-25 15:00N 34°26' E 134°24'611.3
2018-Apr-25 14:27N 34°24' E 134°17'712.8
2018-Apr-25 13:55N 34°26' E 134°09'7211.5
2018-Apr-25 07:36N 34°02' E 132°46'213.0
2018-Apr-25 07:28N 34°00' E 132°45'612.3
2018-Apr-25 07:01N 33°56' E 132°41'612.3
2018-Apr-25 06:29N 33°52' E 132°35'1612.5
2018-Apr-25 05:14N 33°44' E 132°19'312.9
2018-Apr-25 05:00N 33°43' E 132°15'1412.0
2018-Apr-25 03:50N 33°43' E 131°58'412.4
2018-Apr-25 03:30N 33°43' E 131°54'612.4
2018-Apr-25 03:00N 33°45' E 131°46'612.8
2018-Apr-25 02:31N 33°46' E 131°39'612.6
2018-Apr-25 02:00N 33°48' E 131°32'612.7
2018-Apr-25 01:30N 33°49' E 131°24'612.7
2018-Apr-25 01:01N 33°50' E 131°17'612.4
2018-Apr-25 00:30N 33°53' E 131°10'612.4
2018-Apr-25 00:00N 33°56' E 131°04'510.2
2018-Apr-24 23:30N 33°58' E 130°58'5 9.2
2018-Apr-24 23:00N 33°54' E 130°54'5 9.1
2018-Apr-24 22:30N 33°59' E 130°53'611.7
2018-Apr-24 22:01N 34°03' E 130°48'611.1
2018-Apr-24 21:30N 34°08' E 130°45'612.4
2018-Apr-24 21:00N 34°14' E 130°47'612.5
2018-Apr-24 20:30N 34°21' E 130°47'611.9
2018-Apr-24 20:00N 34°26' E 130°51'  
Track history (hours):
 
Tides and Currents Weather Stations Pressure Air Temp Water Temp Dewpoint Dewpoint Depression Visibility Wind Speed Wind Dir Waves Ship Positions

Leader Sw

Last reported at 2018-May-04 01:12 UTC. Time now 2018-May-22 17:22 UTC.
Position N 33°14' E 132°02'.
Warning: this ship's position is 18 days out of date.

Length 117 m; draft 6.9 m.

Type: Cargo ship. MMSI: 371968000.

Date/timePositionNaut miles runAvg speedWind from/ knotsBaromVisibWave heightAir tempDewpointWater temp
2018-May-04 01:12N 33°14' E 132°02'211.8
2018-May-04 01:00N 33°16' E 132°01'610.9
2018-May-04 00:29N 33°21' E 131°58'5 8.7
2018-May-03 23:57N 33°26' E 132°00'2211.3
2018-May-03 21:59N 33°41' E 132°20'611.4
2018-May-03 21:28N 33°45' E 132°25'511.8
2018-May-03 21:00N 33°48' E 132°30'612.4
2018-May-03 20:30N 33°53' E 132°35'712.6
2018-May-03 19:59N 33°57' E 132°42'8110.1
2018-May-03 12:00N 34°24' E 134°13'710.8
2018-May-03 11:23N 34°25' E 134°21'410.7
2018-May-03 10:59N 34°26' E 134°26'511.1
2018-May-03 10:30N 34°28' E 134°32'511.0
2018-May-03 10:00N 34°30' E 134°38'611.2
2018-May-03 09:30N 34°32' E 134°44'510.7
2018-May-03 09:00N 34°34' E 134°50'5 9.9
2018-May-03 08:30N 34°36' E 134°56'4 8.7
2018-May-03 08:00N 34°37' E 135°01'3 6.8
2018-May-03 07:30N 34°36' E 135°05'5 9.0
2018-May-03 07:00N 34°36' E 135°10'510.1
2018-May-03 06:30N 34°38' E 135°16'4 8.0
2018-May-03 06:00N 34°41' E 135°15'1 1.1
2018-May-03 05:29N 34°42' E 135°15'0 0.0
2018-May-03 04:59N 34°42' E 135°15'0 0.0
2018-May-03 04:28N 34°42' E 135°15'0 0.0
2018-May-03 03:58N 34°42' E 135°15'0 0.0
2018-May-03 03:28N 34°42' E 135°15'0 0.0
2018-May-03 02:58N 34°42' E 135°15'0 0.0
2018-May-03 02:28N 34°42' E 135°15'0 0.0
2018-May-03 01:58N 34°42' E 135°15'0 0.0
2018-May-03 01:28N 34°42' E 135°15'0 0.0
2018-May-03 00:58N 34°42' E 135°15'0 0.0
2018-May-03 00:25N 34°42' E 135°15'0 0.0
2018-May-02 23:58N 34°42' E 135°15'0 0.0
2018-May-02 23:28N 34°42' E 135°15'0 0.0
2018-May-02 22:58N 34°42' E 135°15'0 0.0
2018-May-02 22:28N 34°42' E 135°15'0 0.0
2018-May-02 21:58N 34°42' E 135°15'0 0.0
2018-May-02 21:28N 34°42' E 135°15'0 0.0
2018-May-02 20:58N 34°42' E 135°15'0 0.0
2018-May-02 20:28N 34°42' E 135°15'0 0.0
2018-May-02 19:58N 34°42' E 135°15'0 0.0
2018-May-02 19:28N 34°42' E 135°15'0 0.0
2018-May-02 18:58N 34°42' E 135°15'0 0.0
2018-May-02 18:28N 34°42' E 135°15'0 0.0
2018-May-02 17:58N 34°42' E 135°15'0 0.0
2018-May-02 17:28N 34°42' E 135°15'0 0.0
2018-May-02 16:58N 34°42' E 135°15'0 0.0
2018-May-02 16:28N 34°42' E 135°15'0 0.0
2018-May-02 15:58N 34°42' E 135°15'0 0.0
2018-May-02 15:28N 34°42' E 135°15'0 0.0
2018-May-02 14:58N 34°42' E 135°15'0 0.0
2018-May-02 14:28N 34°42' E 135°15'0 0.0
2018-May-02 13:58N 34°42' E 135°15'0 0.0
2018-May-02 13:28N 34°42' E 135°15'0 0.0
2018-May-02 12:58N 34°42' E 135°15'0 0.0
2018-May-02 12:28N 34°42' E 135°15'0 0.0
2018-May-02 11:58N 34°42' E 135°15'0 0.0
2018-May-02 11:28N 34°42' E 135°15'0 0.0
2018-May-02 10:58N 34°42' E 135°15'0 0.0
2018-May-02 10:28N 34°42' E 135°15'0 0.0
2018-May-02 09:58N 34°42' E 135°15'0 0.0
2018-May-02 09:28N 34°42' E 135°15'0 0.0
2018-May-02 08:58N 34°42' E 135°15'0 0.0
2018-May-02 08:28N 34°42' E 135°15'0 0.0
2018-May-02 07:58N 34°42' E 135°15'0 0.0
2018-May-02 07:28N 34°42' E 135°15'0 0.0
2018-May-02 06:58N 34°42' E 135°15'0 0.0
2018-May-02 06:28N 34°42' E 135°15'0 0.0
2018-May-02 05:58N 34°42' E 135°15'0 0.0
2018-May-02 05:28N 34°42' E 135°15'0 0.0
2018-May-02 04:58N 34°42' E 135°15'0 0.0
2018-May-02 04:28N 34°42' E 135°15'0 0.0
2018-May-02 03:58N 34°42' E 135°15'0 0.0
2018-May-02 03:28N 34°42' E 135°15'0 0.0
2018-May-02 02:58N 34°42' E 135°15'0 0.0
2018-May-02 02:28N 34°42' E 135°15'0 0.0
2018-May-02 01:58N 34°42' E 135°15'0 0.0
2018-May-02 01:28N 34°42' E 135°15'0 0.0
2018-May-02 00:58N 34°42' E 135°15'0 0.0
2018-May-02 00:28N 34°42' E 135°15'0 0.0
2018-May-01 23:58N 34°42' E 135°15'0 0.0
2018-May-01 23:28N 34°42' E 135°15'0 0.0
2018-May-01 22:58N 34°42' E 135°15'0 0.0
2018-May-01 22:28N 34°42' E 135°15'0 0.0
2018-May-01 21:58N 34°42' E 135°15'0 0.0
2018-May-01 21:28N 34°42' E 135°15'0 0.0
2018-May-01 20:58N 34°42' E 135°15'0 0.0
2018-May-01 20:28N 34°42' E 135°15'0 0.0
2018-May-01 20:01N 34°42' E 135°15'0 0.0
2018-May-01 19:31N 34°42' E 135°15'0 0.0
2018-May-01 19:00N 34°42' E 135°15'0 0.0
2018-May-01 18:30N 34°42' E 135°15'0 0.0
2018-May-01 18:00N 34°42' E 135°15'0 0.0
2018-May-01 17:30N 34°42' E 135°15'0 0.0
2018-May-01 17:00N 34°42' E 135°15'0 0.0
2018-May-01 16:30N 34°42' E 135°15'0 0.0
2018-May-01 16:00N 34°42' E 135°15'0 0.0
2018-May-01 15:30N 34°42' E 135°15'0 0.0
2018-May-01 15:00N 34°42' E 135°15'0 0.0
2018-May-01 14:30N 34°42' E 135°15'0 0.0
2018-May-01 14:00N 34°42' E 135°15'0 0.0
2018-May-01 13:30N 34°42' E 135°15'0 0.0
2018-May-01 13:00N 34°42' E 135°15'0 0.0
2018-May-01 12:30N 34°42' E 135°15'0 0.0
2018-May-01 12:00N 34°42' E 135°15'0 0.0
2018-May-01 11:30N 34°42' E 135°15'0 0.0
2018-May-01 11:00N 34°42' E 135°15'0 0.0
2018-May-01 10:30N 34°42' E 135°15'0 0.0
2018-May-01 10:00N 34°42' E 135°15'0 0.0
2018-May-01 09:30N 34°42' E 135°15'0 0.0
2018-May-01 09:00N 34°42' E 135°15'0 0.0
2018-May-01 08:30N 34°42' E 135°15'0 0.0
2018-May-01 08:00N 34°42' E 135°15'0 0.0
2018-May-01 07:30N 34°42' E 135°15'0 0.0
2018-May-01 07:00N 34°42' E 135°15'0 0.0
2018-May-01 06:30N 34°42' E 135°15'0 0.0
2018-May-01 06:00N 34°42' E 135°15'0 0.0
2018-May-01 05:30N 34°42' E 135°15'0 0.0
2018-May-01 05:00N 34°42' E 135°15'0 0.0
2018-May-01 04:30N 34°42' E 135°15'0 0.0
2018-May-01 04:00N 34°42' E 135°15'0 0.0
2018-May-01 03:30N 34°42' E 135°15'0 0.0
2018-May-01 03:00N 34°42' E 135°15'0 0.0
2018-May-01 02:30N 34°42' E 135°15'0 0.0
2018-May-01 01:57N 34°42' E 135°15'0 0.0
2018-May-01 01:30N 34°42' E 135°15'2 3.9
2018-May-01 01:00N 34°40' E 135°15'3 5.5
2018-May-01 00:30N 34°37' E 135°14'2 3.0
2018-May-01 00:00N 34°37' E 135°12'0 0.0
2018-Apr-30 23:24N 34°37' E 135°12'0 0.0
2018-Apr-30 23:00N 34°37' E 135°12'0 0.0
2018-Apr-30 22:30N 34°37' E 135°12'0 0.0
2018-Apr-30 22:00N 34°37' E 135°12'0 0.0
2018-Apr-30 21:30N 34°37' E 135°12'0 0.1
2018-Apr-30 21:00N 34°37' E 135°12'0 0.1
2018-Apr-30 20:30N 34°37' E 135°12'0 0.0
2018-Apr-30 20:00N 34°37' E 135°12'0 0.0
2018-Apr-30 19:30N 34°37' E 135°12'0 0.0
2018-Apr-30 19:00N 34°37' E 135°12'0 0.0
2018-Apr-30 18:30N 34°37' E 135°12'0 0.0
2018-Apr-30 18:00N 34°37' E 135°12'0 0.0
2018-Apr-30 17:30N 34°37' E 135°12'0 0.0
2018-Apr-30 17:00N 34°37' E 135°12'0 0.0
2018-Apr-30 16:30N 34°37' E 135°12'0 0.1
2018-Apr-30 16:00N 34°37' E 135°12'0 0.1
2018-Apr-30 15:30N 34°37' E 135°12'0 0.0
2018-Apr-30 15:00N 34°37' E 135°12'0 0.0
2018-Apr-30 14:30N 34°37' E 135°12'0 0.0
2018-Apr-30 14:00N 34°37' E 135°12'0 0.0
2018-Apr-30 13:30N 34°37' E 135°12'0 0.0
2018-Apr-30 13:00N 34°37' E 135°12'0 0.0
2018-Apr-30 12:30N 34°37' E 135°12'0 0.0
2018-Apr-30 12:00N 34°37' E 135°12'0 0.1
2018-Apr-30 11:30N 34°37' E 135°12'0 0.1
2018-Apr-30 11:00N 34°37' E 135°12'0 0.0
2018-Apr-30 10:30N 34°37' E 135°12'0 0.1
2018-Apr-30 10:00N 34°37' E 135°12'0 0.0
2018-Apr-30 09:30N 34°37' E 135°12'0 0.0
2018-Apr-30 09:00N 34°37' E 135°12'0 0.0
2018-Apr-30 08:30N 34°37' E 135°12'0 0.0
2018-Apr-30 08:00N 34°37' E 135°12'0 0.0
2018-Apr-30 07:30N 34°37' E 135°12'0 0.1
2018-Apr-30 07:00N 34°37' E 135°13'0 0.1
2018-Apr-30 06:30N 34°37' E 135°12'0 0.0
2018-Apr-30 06:00N 34°37' E 135°12'0 0.0
2018-Apr-30 05:30N 34°37' E 135°12'0 0.0
2018-Apr-30 05:00N 34°37' E 135°12'0 0.0
2018-Apr-30 04:30N 34°37' E 135°12'0 0.0
2018-Apr-30 04:00N 34°37' E 135°12'0 0.1
2018-Apr-30 03:30N 34°37' E 135°12'0 0.1
2018-Apr-30 03:00N 34°37' E 135°12'0 0.0
2018-Apr-30 02:30N 34°37' E 135°12'0 0.0
2018-Apr-30 02:00N 34°37' E 135°12'0 0.0
2018-Apr-30 01:30N 34°37' E 135°12'0 0.0
2018-Apr-30 01:00N 34°37' E 135°12'0 0.0
2018-Apr-30 00:30N 34°37' E 135°12'0 0.0
2018-Apr-30 00:00N 34°37' E 135°12'0 0.0
2018-Apr-29 23:30N 34°37' E 135°12'0 0.0
2018-Apr-29 23:00N 34°37' E 135°12'0 0.0
2018-Apr-29 22:30N 34°37' E 135°12'0 0.0
2018-Apr-29 22:00N 34°37' E 135°12'0 0.0
2018-Apr-29 21:29N 34°37' E 135°12'0 0.1
2018-Apr-29 20:59N 34°37' E 135°12'0 0.1
2018-Apr-29 20:29N 34°37' E 135°12'0 0.0
2018-Apr-29 19:59N 34°37' E 135°12'0 0.0
2018-Apr-29 19:29N 34°37' E 135°12'0 0.0
2018-Apr-29 18:59N 34°37' E 135°12'0 0.1
2018-Apr-29 18:29N 34°37' E 135°12'0 0.0
2018-Apr-29 17:59N 34°37' E 135°12'0 0.0
2018-Apr-29 17:29N 34°37' E 135°12'0 0.0
2018-Apr-29 16:59N 34°37' E 135°12'0 0.0
2018-Apr-29 16:29N 34°37' E 135°12'0 0.1
2018-Apr-29 15:59N 34°37' E 135°12'0 0.1
2018-Apr-29 15:29N 34°37' E 135°12'0 0.0
2018-Apr-29 14:59N 34°37' E 135°12'0 0.0
2018-Apr-29 14:29N 34°37' E 135°12'0 0.0
2018-Apr-29 13:59N 34°37' E 135°12'0 0.0
2018-Apr-29 13:29N 34°37' E 135°12'0 0.0
2018-Apr-29 12:59N 34°37' E 135°12'0 0.1
2018-Apr-29 12:29N 34°37' E 135°12'0 0.0
2018-Apr-29 11:59N 34°37' E 135°12'0 0.0
2018-Apr-29 11:29N 34°37' E 135°12'0 0.0
2018-Apr-29 10:59N 34°37' E 135°12'0 0.1
2018-Apr-29 10:29N 34°37' E 135°12'0 0.0
2018-Apr-29 09:59N 34°37' E 135°12'0 0.1
2018-Apr-29 09:29N 34°37' E 135°12'0 0.0
2018-Apr-29 08:59N 34°37' E 135°12'0 0.0
2018-Apr-29 08:29N 34°37' E 135°12'0 0.0
2018-Apr-29 07:59N 34°37' E 135°12'0 0.1
2018-Apr-29 07:29N 34°37' E 135°12'0 0.0
2018-Apr-29 06:59N 34°37' E 135°12'0 0.0
2018-Apr-29 06:29N 34°37' E 135°12'0 0.0
2018-Apr-29 05:59N 34°37' E 135°12'0 0.0
2018-Apr-29 05:29N 34°37' E 135°12'0 0.0
2018-Apr-29 04:59N 34°37' E 135°12'0 0.0
2018-Apr-29 04:29N 34°37' E 135°12'0 0.0
2018-Apr-29 03:59N 34°37' E 135°12'0 0.1
2018-Apr-29 03:29N 34°37' E 135°12'0 0.1
2018-Apr-29 02:59N 34°37' E 135°12'0 0.1
2018-Apr-29 02:29N 34°37' E 135°12'0 0.0
2018-Apr-29 01:59N 34°37' E 135°12'0 0.0
2018-Apr-29 01:29N 34°37' E 135°12'0 0.0
2018-Apr-29 00:59N 34°37' E 135°12'0 0.0
2018-Apr-29 00:29N 34°37' E 135°12'0 0.0
2018-Apr-28 23:59N 34°37' E 135°12'0 0.0
2018-Apr-28 23:29N 34°37' E 135°12'0 0.0
2018-Apr-28 22:59N 34°37' E 135°12'0 0.0
2018-Apr-28 22:29N 34°37' E 135°12'0 0.0
2018-Apr-28 21:59N 34°37' E 135°12'0 0.0
2018-Apr-28 21:29N 34°37' E 135°12'0 0.0
2018-Apr-28 20:59N 34°37' E 135°12'0 0.1
2018-Apr-28 20:29N 34°37' E 135°12'0 0.2
2018-Apr-28 19:59N 34°37' E 135°12'0 0.0
2018-Apr-28 19:29N 34°37' E 135°12'0 0.0
2018-Apr-28 18:59N 34°37' E 135°12'0 0.0
2018-Apr-28 18:29N 34°37' E 135°12'0 0.0
2018-Apr-28 17:59N 34°37' E 135°12'0 0.0
2018-Apr-28 17:29N 34°37' E 135°12'0 0.0
2018-Apr-28 16:59N 34°37' E 135°12'0 0.0
2018-Apr-28 16:29N 34°37' E 135°12'0 0.0
2018-Apr-28 15:59N 34°37' E 135°12'0 0.0
2018-Apr-28 15:29N 34°37' E 135°12'0 0.0
2018-Apr-28 14:59N 34°37' E 135°12'0 0.2
2018-Apr-28 14:29N 34°37' E 135°12'0 0.0
2018-Apr-28 13:59N 34°37' E 135°12'0 0.0
2018-Apr-28 13:29N 34°37' E 135°12'0 0.0
2018-Apr-28 12:59N 34°37' E 135°12'0 0.0
2018-Apr-28 12:28N 34°37' E 135°12'0 0.0
2018-Apr-28 11:59N 34°37' E 135°12'2 3.5
2018-Apr-28 11:30N 34°36' E 135°11'5 9.2
2018-Apr-28 11:00N 34°35' E 135°06'4 8.3
2018-Apr-28 10:30N 34°37' E 135°01'4 8.4
2018-Apr-28 10:00N 34°36' E 134°56'4 8.9
2018-Apr-28 09:30N 34°34' E 134°51'510.2
2018-Apr-28 09:00N 34°32' E 134°46'4 8.3
2018-Apr-28 08:30N 34°36' E 134°43'611.2
2018-Apr-28 08:00N 34°41' E 134°47'3 5.4
2018-Apr-28 07:29N 34°43' E 134°48'0 0.2
2018-Apr-28 06:57N 34°43' E 134°49'0 0.0
2018-Apr-28 06:27N 34°43' E 134°49'0 0.0
2018-Apr-28 05:57N 34°43' E 134°49'0 0.0
2018-Apr-28 05:27N 34°43' E 134°49'0 0.0
2018-Apr-28 04:51N 34°43' E 134°49'0 0.0
2018-Apr-28 04:27N 34°43' E 134°49'0 0.0
2018-Apr-28 03:45N 34°43' E 134°49'0 0.0
2018-Apr-28 03:15N 34°43' E 134°49'0 0.0
2018-Apr-28 02:45N 34°43' E 134°49'0 0.0
2018-Apr-28 02:27N 34°43' E 134°49'0 0.0
2018-Apr-28 01:57N 34°43' E 134°49'0 0.0
2018-Apr-28 01:27N 34°43' E 134°49'0 0.0
2018-Apr-28 00:51N 34°43' E 134°49'0 0.0
2018-Apr-28 00:27N 34°43' E 134°49'0 0.0
2018-Apr-27 23:57N 34°43' E 134°49'0 0.0
2018-Apr-27 23:27N 34°43' E 134°49'0 0.0
2018-Apr-27 22:57N 34°43' E 134°49'0 0.0
2018-Apr-27 22:30N 34°43' E 134°49'0 0.0
2018-Apr-27 22:00N 34°43' E 134°49'0 0.0
2018-Apr-27 21:27N 34°43' E 134°49'0 0.0
2018-Apr-27 20:57N 34°43' E 134°49'0 0.0
2018-Apr-27 20:29N 34°43' E 134°49'0 0.0
2018-Apr-27 19:51N 34°43' E 134°49'0 0.0
2018-Apr-27 19:26N 34°43' E 134°49'0 0.0
2018-Apr-27 18:50N 34°43' E 134°49'0 0.0
2018-Apr-27 18:29N 34°43' E 134°49'0 0.0
2018-Apr-27 17:59N 34°43' E 134°49'0 0.0
2018-Apr-27 17:26N 34°43' E 134°49'0 0.0
2018-Apr-27 16:56N 34°43' E 134°49'0 0.0
2018-Apr-27 16:29N 34°43' E 134°49'0 0.0
2018-Apr-27 15:59N 34°43' E 134°49'0 0.0
2018-Apr-27 15:29N 34°43' E 134°49'0 0.0
2018-Apr-27 14:59N 34°43' E 134°49'0 0.0
2018-Apr-27 14:14N 34°43' E 134°49'0 0.0
2018-Apr-27 13:59N 34°43' E 134°49'0 0.0
2018-Apr-27 13:29N 34°43' E 134°49'0 0.0
2018-Apr-27 12:56N 34°43' E 134°49'0 0.0
2018-Apr-27 12:26N 34°43' E 134°49'0 0.0
2018-Apr-27 11:56N 34°43' E 134°49'0 0.0
2018-Apr-27 11:26N 34°43' E 134°49'0 0.0
2018-Apr-27 10:59N 34°43' E 134°49'0 0.0
2018-Apr-27 10:26N 34°43' E 134°49'0 0.0
2018-Apr-27 09:59N 34°43' E 134°49'0 0.0
2018-Apr-27 09:20N 34°43' E 134°49'0 0.0
2018-Apr-27 08:56N 34°43' E 134°49'0 0.0
2018-Apr-27 08:14N 34°43' E 134°49'0 0.0
2018-Apr-27 07:59N 34°43' E 134°49'0 0.0
2018-Apr-27 07:20N 34°43' E 134°49'0 0.0
2018-Apr-27 06:56N 34°43' E 134°49'0 0.0
2018-Apr-27 06:20N 34°43' E 134°49'0 0.0
2018-Apr-27 05:56N 34°43' E 134°49'0 0.0
2018-Apr-27 05:29N 34°43' E 134°49'0 0.0
2018-Apr-27 04:56N 34°43' E 134°49'0 0.0
2018-Apr-27 04:26N 34°43' E 134°49'0 0.0
2018-Apr-27 03:59N 34°43' E 134°49'0 0.0
2018-Apr-27 03:26N 34°43' E 134°49'0 0.0
2018-Apr-27 02:59N 34°43' E 134°49'0 0.0
2018-Apr-27 02:29N 34°43' E 134°49'0 0.0
2018-Apr-27 01:56N 34°43' E 134°49'0 0.0
2018-Apr-27 01:23N 34°43' E 134°49'0 0.0
2018-Apr-27 00:56N 34°43' E 134°49'0 0.0
2018-Apr-27 00:20N 34°43' E 134°49'0 0.0
2018-Apr-26 23:59N 34°43' E 134°49'0 0.0
2018-Apr-26 23:26N 34°43' E 134°49'0 0.0
2018-Apr-26 22:59N 34°43' E 134°49'0 0.0
2018-Apr-26 22:23N 34°43' E 134°49'0 0.0
2018-Apr-26 21:17N 34°43' E 134°49'0 0.0
2018-Apr-26 20:02N 34°43' E 134°49'0 0.0
2018-Apr-26 19:56N 34°43' E 134°49'0 0.0
2018-Apr-26 19:20N 34°43' E 134°49'0 0.0
2018-Apr-26 18:59N 34°43' E 134°49'0 0.0
2018-Apr-26 18:11N 34°43' E 134°49'0 0.0
2018-Apr-26 17:56N 34°43' E 134°49'0 0.0
2018-Apr-26 17:08N 34°43' E 134°49'0 0.0
2018-Apr-26 16:50N 34°43' E 134°49'0 0.0
2018-Apr-26 16:26N 34°43' E 134°49'0 0.0
2018-Apr-26 15:59N 34°43' E 134°49'0 0.0
2018-Apr-26 15:20N 34°43' E 134°49'0 0.0
2018-Apr-26 14:50N 34°43' E 134°49'0 0.0
2018-Apr-26 14:26N 34°43' E 134°49'0 0.0
2018-Apr-26 13:56N 34°43' E 134°49'0 0.0
2018-Apr-26 13:29N 34°43' E 134°49'0 0.0
2018-Apr-26 12:56N 34°43' E 134°49'0 0.0
2018-Apr-26 12:26N 34°43' E 134°49'0 0.0
2018-Apr-26 11:56N 34°43' E 134°49'0 0.0
2018-Apr-26 11:08N 34°43' E 134°49'0 0.0
2018-Apr-26 10:44N 34°43' E 134°49'0 0.0
2018-Apr-26 10:26N 34°43' E 134°49'0 0.0
2018-Apr-26 09:56N 34°43' E 134°49'0 0.0
2018-Apr-26 09:29N 34°43' E 134°49'0 0.0
2018-Apr-26 08:47N 34°43' E 134°49'0 0.0
2018-Apr-26 08:29N 34°43' E 134°49'0 0.0
2018-Apr-26 07:56N 34°43' E 134°49'0 0.0
2018-Apr-26 07:25N 34°43' E 134°49'0 0.0
2018-Apr-26 06:58N 34°43' E 134°49'0 0.0
2018-Apr-26 06:25N 34°43' E 134°49'0 0.0
2018-Apr-26 05:55N 34°43' E 134°49'0 0.0
2018-Apr-26 05:19N 34°43' E 134°49'0 0.0
2018-Apr-26 04:55N 34°43' E 134°49'0 0.0
2018-Apr-26 04:25N 34°43' E 134°49'0 0.0
2018-Apr-26 03:49N 34°43' E 134°49'0 0.0
2018-Apr-26 03:25N 34°43' E 134°49'0 0.0
2018-Apr-26 02:55N 34°43' E 134°49'0 0.0
2018-Apr-26 02:28N 34°43' E 134°49'0 0.0
2018-Apr-26 01:55N 34°43' E 134°49'0 0.0
2018-Apr-26 01:28N 34°43' E 134°49'0 0.0
2018-Apr-26 00:55N 34°43' E 134°49'0 0.0
2018-Apr-26 00:19N 34°43' E 134°49'0 0.0
2018-Apr-25 23:58N 34°43' E 134°49'0 0.0
2018-Apr-25 23:25N 34°43' E 134°49'0 0.0
2018-Apr-25 22:58N 34°43' E 134°49'1 2.7
2018-Apr-25 22:30N 34°42' E 134°48'2 4.3
2018-Apr-25 21:59N 34°40' E 134°46'0 0.1
2018-Apr-25 21:20N 34°40' E 134°46'0 0.1
2018-Apr-25 20:59N 34°40' E 134°46'0 0.0
2018-Apr-25 20:29N 34°40' E 134°46'0 0.0
2018-Apr-25 19:59N 34°40' E 134°46'0 0.0
2018-Apr-25 19:26N 34°40' E 134°46'0 0.0
2018-Apr-25 18:59N 34°40' E 134°46'0 0.0
2018-Apr-25 18:26N 34°40' E 134°46'0 0.1
2018-Apr-25 17:59N 34°40' E 134°46'0 0.1
2018-Apr-25 17:29N 34°40' E 134°46'1 2.6
2018-Apr-25 17:00N 34°39' E 134°45'5 9.4
2018-Apr-25 16:31N 34°37' E 134°41'611.5
2018-Apr-25 16:00N 34°33' E 134°35'611.9
2018-Apr-25 15:31N 34°30' E 134°29'611.5
2018-Apr-25 15:00N 34°26' E 134°24'611.3
2018-Apr-25 14:27N 34°24' E 134°17'712.8
2018-Apr-25 13:55N 34°26' E 134°09'7211.5
2018-Apr-25 07:36N 34°02' E 132°46'213.0
2018-Apr-25 07:28N 34°00' E 132°45'612.3
2018-Apr-25 07:01N 33°56' E 132°41'612.3
2018-Apr-25 06:29N 33°52' E 132°35'1612.5
2018-Apr-25 05:14N 33°44' E 132°19'312.9
2018-Apr-25 05:00N 33°43' E 132°15'1412.0
2018-Apr-25 03:50N 33°43' E 131°58'412.4
2018-Apr-25 03:30N 33°43' E 131°54'612.4
2018-Apr-25 03:00N 33°45' E 131°46'612.8
2018-Apr-25 02:31N 33°46' E 131°39'612.6
2018-Apr-25 02:00N 33°48' E 131°32'612.7
2018-Apr-25 01:30N 33°49' E 131°24'612.7
2018-Apr-25 01:01N 33°50' E 131°17'612.4
2018-Apr-25 00:30N 33°53' E 131°10'612.4
2018-Apr-25 00:00N 33°56' E 131°04'510.2
2018-Apr-24 23:30N 33°58' E 130°58'5 9.2
2018-Apr-24 23:00N 33°54' E 130°54'5 9.1
2018-Apr-24 22:30N 33°59' E 130°53'611.7
2018-Apr-24 22:01N 34°03' E 130°48'611.1
2018-Apr-24 21:30N 34°08' E 130°45'612.4
2018-Apr-24 21:00N 34°14' E 130°47'612.5
2018-Apr-24 20:30N 34°21' E 130°47'611.9
2018-Apr-24 20:00N 34°26' E 130°51'  

Dump ship's entire track history